createdAt,value
2022-11-30T00:01:28.568Z,100.00
2022-11-30T00:05:06.885Z,100.00
2022-11-30T00:08:44.181Z,100.00
2022-11-30T00:12:21.619Z,100.00
2022-11-30T00:16:03.326Z,100.00
2022-11-30T00:19:37.738Z,100.00
2022-11-30T00:23:14.936Z,100.00
2022-11-30T00:26:52.497Z,100.00
2022-11-30T00:30:30.937Z,100.00
2022-11-30T00:34:07.904Z,100.00
2022-11-30T00:37:45.713Z,100.00
2022-11-30T00:41:23.312Z,100.00
2022-11-30T00:45:01.127Z,100.00
2022-11-30T00:48:39.643Z,100.00
2022-11-30T00:52:16.427Z,100.00
2022-11-30T00:55:54.130Z,100.00
2022-11-30T00:59:31.938Z,100.00
2022-11-30T01:03:10.152Z,100.00
2022-11-30T01:06:47.346Z,100.00
2022-11-30T01:10:24.844Z,100.00
2022-11-30T01:14:02.858Z,100.00
2022-11-30T01:17:40.251Z,100.00
2022-11-30T01:21:21.227Z,100.00
2022-11-30T01:24:55.535Z,100.00
2022-11-30T01:28:33.978Z,100.00
2022-11-30T01:32:10.978Z,100.00
2022-11-30T01:35:48.773Z,100.00
2022-11-30T01:39:26.477Z,100.00
2022-11-30T01:43:04.283Z,100.00
2022-11-30T01:47:02.368Z,100.00
2022-11-30T01:50:24.303Z,100.00
2022-11-30T01:53:58.215Z,100.00
2022-11-30T01:57:39.096Z,100.00
2022-11-30T02:01:12.734Z,100.00
2022-11-30T02:04:50.843Z,100.00
2022-11-30T02:08:30.725Z,100.00
2022-11-30T02:12:08.928Z,100.00
2022-11-30T02:15:58.631Z,100.00
2022-11-30T02:19:33.412Z,100.00
2022-11-30T02:23:21.286Z,100.00
2022-11-30T02:27:04.506Z,100.00
2022-11-30T02:30:21.769Z,100.00
2022-11-30T02:33:57.059Z,100.00
2022-11-30T02:37:32.303Z,100.00
2022-11-30T02:41:08.880Z,100.00
2022-11-30T02:44:51.657Z,100.00
2022-11-30T02:48:32.791Z,100.00
2022-11-30T02:52:04.032Z,100.00
2022-11-30T02:55:40.315Z,100.00
2022-11-30T02:59:17.300Z,100.00
2022-11-30T03:02:55.582Z,100.00
2022-11-30T03:06:32.625Z,100.00
2022-11-30T03:10:10.948Z,100.00
2022-11-30T03:13:48.014Z,100.00
2022-11-30T03:17:25.924Z,100.00
2022-11-30T03:21:11.410Z,100.00
2022-11-30T03:24:41.231Z,100.00
2022-11-30T03:28:18.830Z,100.00
2022-11-30T03:31:56.636Z,100.00
2022-11-30T03:35:34.239Z,100.00
2022-11-30T03:39:12.047Z,100.00
2022-11-30T03:42:49.647Z,100.00
2022-11-30T03:46:27.811Z,100.00
2022-11-30T03:50:05.567Z,100.00
2022-11-30T03:53:42.965Z,100.00
2022-11-30T03:57:20.465Z,100.00
2022-11-30T04:01:11.991Z,100.00
2022-11-30T04:04:35.737Z,100.00
2022-11-30T04:08:13.679Z,100.00
2022-11-30T04:11:51.086Z,100.00
2022-11-30T04:15:28.986Z,100.00
2022-11-30T04:19:06.688Z,100.00
2022-11-30T04:22:44.396Z,100.00
2022-11-30T04:26:21.994Z,100.00
2022-11-30T04:29:59.801Z,100.00
2022-11-30T04:33:37.302Z,100.00
2022-11-30T04:37:15.210Z,100.00
2022-11-30T04:40:53.938Z,100.00
2022-11-30T04:44:30.496Z,100.00
2022-11-30T04:48:08.322Z,100.00
2022-11-30T04:51:45.922Z,100.00
2022-11-30T04:55:24.242Z,100.00
2022-11-30T04:59:02.357Z,100.00
2022-11-30T05:02:39.138Z,100.00
2022-11-30T05:06:16.739Z,100.00
2022-11-30T05:09:54.311Z,100.00
2022-11-30T05:13:32.148Z,100.00
2022-11-30T05:17:09.749Z,100.00
2022-11-30T05:20:49.439Z,100.00
2022-11-30T05:24:25.054Z,100.00
2022-11-30T05:28:02.964Z,100.00
2022-11-30T05:31:41.182Z,100.00
2022-11-30T05:35:18.270Z,100.00
2022-11-30T05:38:55.873Z,100.00
2022-11-30T05:42:33.783Z,100.00
2022-11-30T05:46:11.483Z,100.00
2022-11-30T05:49:49.086Z,100.00
2022-11-30T05:53:26.641Z,100.00
2022-11-30T05:57:05.470Z,100.00
2022-11-30T06:00:42.060Z,100.00
2022-11-30T06:04:20.313Z,100.00
2022-11-30T06:07:59.597Z,100.00
2022-11-30T06:11:35.102Z,100.00
2022-11-30T06:15:12.913Z,100.00
2022-11-30T06:18:50.721Z,100.00
2022-11-30T06:22:28.880Z,100.00
2022-11-30T06:26:10.100Z,100.00
2022-11-30T06:29:43.834Z,100.00
2022-11-30T06:33:24.307Z,100.00
2022-11-30T06:36:59.241Z,100.00
2022-11-30T06:40:36.945Z,100.00
2022-11-30T06:44:14.550Z,100.00
2022-11-30T06:47:55.847Z,100.00
2022-11-30T06:51:29.806Z,100.00
2022-11-30T06:55:08.172Z,100.00
2022-11-30T06:58:45.203Z,100.00
2022-11-30T07:02:23.581Z,100.00
2022-11-30T07:06:00.773Z,100.00
2022-11-30T07:09:38.580Z,100.00
2022-11-30T07:13:18.227Z,100.00
2022-11-30T07:16:54.056Z,100.00
2022-11-30T07:20:32.345Z,100.00
2022-11-30T07:24:31.002Z,100.00
2022-11-30T07:27:46.690Z,100.00
2022-11-30T07:31:32.440Z,100.00
2022-11-30T07:35:02.407Z,100.00
2022-11-30T07:38:40.934Z,100.00
2022-11-30T07:42:18.122Z,100.00
2022-11-30T07:45:56.189Z,100.00
2022-11-30T07:49:33.120Z,100.00
2022-11-30T07:53:10.926Z,100.00
2022-11-30T07:56:48.426Z,100.00
2022-11-30T08:00:26.129Z,100.00
2022-11-30T08:04:04.140Z,100.00
2022-11-30T08:07:41.911Z,100.00
2022-11-30T08:11:24.272Z,100.00
2022-11-30T08:15:19.394Z,100.00
2022-11-30T08:18:44.311Z,100.00
2022-11-30T08:22:12.592Z,100.00
2022-11-30T08:25:50.060Z,100.00
2022-11-30T08:30:05.668Z,100.00
2022-11-30T08:33:16.882Z,100.00
2022-11-30T08:36:54.434Z,100.00
2022-11-30T08:40:31.960Z,100.00
2022-11-30T08:44:29.737Z,100.00
2022-11-30T08:47:47.649Z,100.00
2022-11-30T08:51:24.753Z,100.00
2022-11-30T08:55:02.240Z,100.00
2022-11-30T08:58:40.865Z,100.00
2022-11-30T09:02:19.668Z,100.00
2022-11-30T09:05:55.455Z,100.00
2022-11-30T09:09:33.056Z,100.00
2022-11-30T09:13:10.861Z,100.00
2022-11-30T09:16:48.532Z,100.00
2022-11-30T09:20:26.158Z,100.00
2022-11-30T09:24:04.281Z,100.00
2022-11-30T09:27:41.576Z,100.00
2022-11-30T09:31:21.689Z,100.00
2022-11-30T09:34:57.087Z,100.00
2022-11-30T09:38:35.202Z,100.00
2022-11-30T09:42:33.742Z,100.00
2022-11-30T09:46:09.384Z,100.00
2022-11-30T09:49:34.224Z,100.00
2022-11-30T09:53:14.263Z,100.00
2022-11-30T09:56:44.745Z,100.00
2022-11-30T10:00:23.678Z,100.00
2022-11-30T10:03:58.925Z,100.00
2022-11-30T10:07:36.381Z,100.00
2022-11-30T10:11:23.217Z,100.00
2022-11-30T10:15:29.620Z,100.00
2022-11-30T10:18:48.282Z,100.00
2022-11-30T10:22:46.564Z,100.00
2022-11-30T10:26:08.648Z,100.00
2022-11-30T10:29:40.676Z,100.00
2022-11-30T10:33:18.662Z,100.00
2022-11-30T10:37:17.894Z,100.00
2022-11-30T10:40:46.482Z,100.00
2022-11-30T10:44:28.909Z,100.00
2022-11-30T10:47:48.986Z,100.00
2022-11-30T10:51:22.086Z,100.00
2022-11-30T10:55:04.591Z,100.00
2022-11-30T10:58:39.643Z,100.00
2022-11-30T11:02:45.821Z,100.00
2022-11-30T11:06:06.009Z,100.00
2022-11-30T11:09:33.917Z,100.00
2022-11-30T11:13:38.517Z,100.00
2022-11-30T11:16:52.361Z,100.00
2022-11-30T11:20:35.903Z,100.00
2022-11-30T11:24:10.201Z,100.00
2022-11-30T11:27:45.035Z,100.00
2022-11-30T11:31:37.007Z,100.00
2022-11-30T11:34:58.428Z,100.00
2022-11-30T11:38:44.314Z,100.00
2022-11-30T11:42:22.414Z,100.00
2022-11-30T11:45:53.585Z,100.00
2022-11-30T11:49:37.438Z,100.00
2022-11-30T11:53:15.602Z,100.00
2022-11-30T11:56:44.447Z,100.00
2022-11-30T12:00:25.037Z,100.00
2022-11-30T12:04:18.138Z,100.00
2022-11-30T12:07:50.661Z,100.00
2022-11-30T12:11:31.850Z,100.00
2022-11-30T12:14:53.885Z,100.00
2022-11-30T12:18:42.345Z,100.00
2022-11-30T12:22:42.809Z,100.00
2022-11-30T12:26:21.305Z,100.00
2022-11-30T12:29:55.836Z,100.00
2022-11-30T12:33:35.186Z,100.00
2022-11-30T12:36:49.694Z,100.00
2022-11-30T12:40:47.513Z,100.00
2022-11-30T12:44:21.223Z,100.00
2022-11-30T12:48:18.488Z,100.00
2022-11-30T12:51:35.557Z,100.00
2022-11-30T12:55:20.811Z,100.00
2022-11-30T12:59:11.495Z,100.00
2022-11-30T13:02:46.438Z,100.00
2022-11-30T13:06:05.732Z,100.00
2022-11-30T13:09:52.421Z,100.00
2022-11-30T13:13:19.830Z,100.00
2022-11-30T13:17:02.505Z,100.00
2022-11-30T13:20:40.416Z,100.00
2022-11-30T13:24:26.533Z,100.00
2022-11-30T13:28:09.954Z,100.00
2022-11-30T13:31:28.636Z,100.00
2022-11-30T13:35:29.873Z,100.00
2022-11-30T13:38:40.231Z,100.00
2022-11-30T13:42:43.896Z,100.00
2022-11-30T13:46:14.835Z,100.00
2022-11-30T13:49:36.416Z,100.00
2022-11-30T13:53:26.104Z,100.00
2022-11-30T13:56:49.675Z,100.00
2022-11-30T14:00:30.229Z,100.00
2022-11-30T14:04:20.339Z,100.00
2022-11-30T14:08:06.674Z,100.00
2022-11-30T14:11:39.334Z,100.00
2022-11-30T14:14:59.423Z,100.00
2022-11-30T14:18:43.933Z,100.00
2022-11-30T14:22:14.650Z,100.00
2022-11-30T14:25:54.983Z,100.00
2022-11-30T14:29:35.194Z,100.00
2022-11-30T14:33:19.505Z,100.00
2022-11-30T14:36:49.129Z,100.00
2022-11-30T14:40:25.019Z,100.00
2022-11-30T14:44:07.200Z,100.00
2022-11-30T14:47:38.149Z,100.00
2022-11-30T14:51:23.310Z,100.00
2022-11-30T14:55:35.411Z,100.00
2022-11-30T14:59:19.535Z,100.00
2022-11-30T15:02:43.267Z,100.00
2022-11-30T15:06:15.874Z,100.00
2022-11-30T15:09:54.579Z,100.00
2022-11-30T15:13:26.652Z,100.00
2022-11-30T15:17:03.854Z,100.00
2022-11-30T15:20:45.759Z,100.00
2022-11-30T15:24:21.063Z,100.00
2022-11-30T15:27:58.621Z,100.00
2022-11-30T15:31:38.188Z,100.00
2022-11-30T15:36:04.980Z,100.00
2022-11-30T15:39:20.923Z,100.00
2022-11-30T15:42:49.454Z,100.00
2022-11-30T15:46:59.160Z,100.00
2022-11-30T15:50:29.519Z,100.00
2022-11-30T15:53:51.622Z,100.00
2022-11-30T15:57:47.332Z,100.00
2022-11-30T16:01:10.653Z,100.00
2022-11-30T16:04:56.301Z,100.00
2022-11-30T16:08:19.146Z,100.00
2022-11-30T16:11:58.154Z,100.00
2022-11-30T16:15:36.833Z,100.00
2022-11-30T16:19:11.541Z,100.00
2022-11-30T16:22:49.551Z,100.00
2022-11-30T16:26:49.861Z,100.00
2022-11-30T16:30:05.420Z,100.00
2022-11-30T16:33:42.462Z,100.00
2022-11-30T16:37:20.164Z,100.00
2022-11-30T16:41:16.504Z,100.00
2022-11-30T16:44:35.673Z,100.00
2022-11-30T16:48:14.504Z,100.00
2022-11-30T16:51:50.775Z,100.00
2022-11-30T16:55:32.409Z,100.00
2022-11-30T16:59:06.182Z,100.00
2022-11-30T17:03:21.776Z,100.00
2022-11-30T17:06:31.627Z,100.00
2022-11-30T17:10:09.639Z,100.00
2022-11-30T17:13:47.035Z,100.00
2022-11-30T17:17:24.440Z,100.00
2022-11-30T17:21:02.220Z,100.00
2022-11-30T17:24:39.941Z,100.00
2022-11-30T17:28:17.986Z,100.00
2022-11-30T17:31:55.350Z,100.00
2022-11-30T17:35:33.261Z,100.00
2022-11-30T17:39:11.068Z,100.00
2022-11-30T17:42:48.770Z,100.00
2022-11-30T17:46:26.225Z,100.00
2022-11-30T17:50:04.182Z,100.00
2022-11-30T17:53:42.804Z,100.00
2022-11-30T17:57:19.281Z,100.00
2022-11-30T18:00:56.911Z,100.00
2022-11-30T18:04:34.892Z,100.00
2022-11-30T18:08:12.292Z,100.00
2022-11-30T18:11:50.302Z,100.00
2022-11-30T18:15:28.417Z,100.00
2022-11-30T18:19:14.747Z,100.00
2022-11-30T18:22:42.955Z,100.00
2022-11-30T18:26:22.825Z,100.00
2022-11-30T18:29:58.618Z,100.00
2022-11-30T18:34:00.738Z,100.00
2022-11-30T18:37:16.599Z,100.00
2022-11-30T18:40:56.748Z,100.00
2022-11-30T18:44:29.437Z,100.00
2022-11-30T18:48:12.490Z,100.00
2022-11-30T18:51:48.633Z,100.00
2022-11-30T18:55:26.493Z,100.00
2022-11-30T18:59:06.933Z,100.00
2022-11-30T19:02:41.908Z,100.00
2022-11-30T19:06:20.163Z,100.00
2022-11-30T19:09:57.255Z,100.00
2022-11-30T19:13:36.290Z,100.00
2022-11-30T19:17:12.737Z,100.00
2022-11-30T19:20:50.577Z,100.00
2022-11-30T19:24:28.173Z,100.00
2022-11-30T19:28:20.442Z,100.00
2022-11-30T19:31:43.479Z,100.00
2022-11-30T19:35:23.105Z,100.00
2022-11-30T19:39:00.730Z,100.00
2022-11-30T19:42:36.490Z,100.00
2022-11-30T19:46:16.919Z,100.00
2022-11-30T19:49:51.692Z,100.00
2022-11-30T19:53:35.962Z,100.00
2022-11-30T19:57:19.856Z,100.00
2022-11-30T20:01:03.296Z,100.00
2022-11-30T20:04:24.047Z,100.00
2022-11-30T20:08:00.983Z,100.00
2022-11-30T20:11:38.295Z,100.00
2022-11-30T20:19:19.130Z,100.00
2022-11-30T20:22:51.101Z,100.00
2022-11-30T20:26:36.403Z,100.00
2022-11-30T20:30:09.365Z,100.00
2022-11-30T20:33:44.216Z,100.00
2022-11-30T20:37:21.302Z,100.00
2022-11-30T20:40:59.314Z,100.00
2022-11-30T20:44:36.832Z,100.00
2022-11-30T20:48:14.527Z,100.00
2022-11-30T20:51:53.040Z,100.00
2022-11-30T20:55:30.454Z,100.00
2022-11-30T20:59:20.273Z,100.00
2022-11-30T21:02:45.132Z,100.00
2022-11-30T21:06:22.935Z,100.00
2022-11-30T21:10:02.073Z,100.00
2022-11-30T21:13:39.265Z,100.00
2022-11-30T21:17:15.747Z,100.00
2022-11-30T21:21:01.535Z,100.00
2022-11-30T21:24:31.251Z,100.00
2022-11-30T21:28:08.826Z,100.00
2022-11-30T21:31:46.865Z,100.00
2022-11-30T21:35:24.158Z,100.00
2022-11-30T21:39:06.565Z,100.00
2022-11-30T21:42:39.701Z,100.00
2022-11-30T21:46:19.443Z,100.00
2022-11-30T21:49:56.860Z,100.00
2022-11-30T21:53:37.325Z,100.00
2022-11-30T21:57:10.487Z,100.00
2022-11-30T22:00:56.608Z,100.00
2022-11-30T22:04:26.166Z,100.00
2022-11-30T22:08:03.508Z,100.00
2022-11-30T22:11:42.759Z,100.00
2022-11-30T22:15:18.832Z,100.00
2022-11-30T22:18:57.893Z,100.00
2022-11-30T22:22:34.622Z,100.00
2022-11-30T22:26:12.631Z,100.00
2022-11-30T22:29:51.053Z,100.00
2022-11-30T22:33:27.632Z,100.00
2022-11-30T22:37:05.026Z,100.00
2022-11-30T22:40:42.940Z,100.00
2022-11-30T22:44:20.851Z,100.00
2022-11-30T22:47:58.241Z,100.00
2022-11-30T22:51:38.305Z,100.00
2022-11-30T22:55:13.983Z,100.00
2022-11-30T22:58:56.576Z,100.00
2022-11-30T23:02:29.057Z,100.00
2022-11-30T23:06:07.890Z,100.00
2022-11-30T23:09:44.378Z,100.00
2022-11-30T23:13:21.967Z,100.00
2022-11-30T23:17:02.642Z,100.00
2022-11-30T23:20:37.581Z,100.00
2022-11-30T23:24:20.341Z,99.97
2022-11-30T23:27:53.910Z,100.00
2022-11-30T23:31:35.810Z,99.84
2022-11-30T23:35:08.907Z,99.79
2022-11-30T23:38:47.227Z,99.72
2022-11-30T23:42:23.648Z,99.44
2022-11-30T23:46:02.533Z,99.41
2022-11-30T23:49:39.110Z,99.35
2022-11-30T23:53:16.814Z,99.41
2022-11-30T23:56:54.519Z,99.48
